Time;durP1;ratioP1;P1;durP2;ratioP2;P2;SDS_P1;SDS_P2;PMS_P1;PMS_P2;Temp;Humidity;BMP_temperature;BMP_pressure;BME280_temperature;BME280_humidity;BME280_pressure;Samples;Min_cycle;Max_cycle;Signal;HPM_P1;HPM_P2
2021/12/20 00:01:54;;;;;;;;;;;6.60;97.80;;;;;;5091013;28;19924;-70
2021/12/20 00:04:20;;;;;;;;;;;6.60;97.80;;;;;;5083360;28;19927;-70
2021/12/20 00:06:45;;;;;;;;;;;6.60;97.80;;;;;;5089661;28;19908;-70
2021/12/20 00:09:11;;;;;;;;;;;6.60;97.80;;;;;;5079472;28;20298;-69
2021/12/20 00:11:36;;;;;;;;;;;6.60;97.70;;;;;;5088205;28;19908;-70
2021/12/20 00:14:02;;;;;;;;;;;6.60;97.80;;;;;;5095186;28;19916;-70
2021/12/20 00:16:27;;;;;;;;;;;6.60;97.80;;;;;;5088112;28;20376;-70
2021/12/20 00:18:53;;;;;;;;;;;6.60;97.80;;;;;;5094682;28;19911;-69
2021/12/20 00:21:18;;;;;;;;;;;6.60;97.80;;;;;;5088776;28;19920;-70
2021/12/20 00:23:44;;;;;;;;;;;6.60;97.80;;;;;;5094810;28;19961;-70
2021/12/20 00:26:10;;;;;;;;;;;6.60;97.80;;;;;;5101492;28;19912;-70
2021/12/20 00:28:36;;;;;;;;;;;6.60;97.80;;;;;;5096512;28;20521;-70
2021/12/20 00:31:01;;;;;;;;;;;6.60;97.80;;;;;;5103659;28;19912;-70
2021/12/20 00:33:33;;;;;;;;;;;6.60;97.80;;;;;;5093824;28;19998;-70
2021/12/20 00:35:58;;;;;;;;;;;6.60;97.80;;;;;;5095449;28;19999;-70
2021/12/20 00:41:08;;;;;;;;;;;6.60;97.80;;;;;;5096137;28;19927;-69
2021/12/20 00:43:34;;;;;;;;;;;6.60;97.80;;;;;;5092529;28;20463;-70
2021/12/20 00:45:59;;;;;;;;;;;6.60;97.80;;;;;;5100335;28;19920;-70
2021/12/20 00:48:25;;;;;;;;;;;6.60;97.80;;;;;;5099587;28;19980;-70
2021/12/20 00:50:50;;;;;;;;;;;6.60;97.80;;;;;;5088749;28;20423;-70
2021/12/20 00:53:16;;;;;;;;;;;6.60;97.80;;;;;;5092384;28;19908;-70
2021/12/20 00:55:41;;;;;;;;;;;6.60;97.80;;;;;;5092578;28;19918;-70
2021/12/20 00:58:07;;;;;;;;;;;6.60;97.80;;;;;;5097778;28;19958;-70
2021/12/20 01:00:34;;;;;;;;;;;6.60;97.80;;;;;;5094563;28;20262;-70
2021/12/20 01:03:01;;;;;;;;;;;6.60;97.70;;;;;;5091391;28;19943;-70
2021/12/20 01:05:27;;;;;;;;;;;6.60;97.80;;;;;;5094917;28;19916;-69
2021/12/20 01:07:56;;;;;;;;;;;6.60;97.80;;;;;;5088284;28;19923;-70
2021/12/20 01:10:22;;;;;;;;;;;6.60;97.80;;;;;;5077981;28;19912;-70
2021/12/20 01:12:50;;;;;;;;;;;6.60;97.80;;;;;;5092356;28;19908;-70
2021/12/20 01:15:27;;;;;;;;;;;6.60;97.80;;;;;;5091765;28;19919;-70
2021/12/20 01:17:53;;;;;;;;;;;6.60;97.80;;;;;;5092981;28;19951;-69
2021/12/20 01:20:19;;;;;;;;;;;6.60;97.80;;;;;;5093230;28;19973;-70
2021/12/20 01:22:45;;;;;;;;;;;6.60;97.80;;;;;;5092857;28;19961;-70
2021/12/20 01:25:11;;;;;;;;;;;6.60;97.70;;;;;;5091022;28;20374;-70
2021/12/20 01:27:37;;;;;;;;;;;6.50;97.70;;;;;;5091048;28;19933;-70
2021/12/20 01:30:04;;;;;;;;;;;6.60;97.70;;;;;;5074972;28;19912;-70
2021/12/20 01:32:29;;;;;;;;;;;6.50;97.70;;;;;;5089237;28;20019;-69
2021/12/20 01:34:55;;;;;;;;;;;6.60;97.70;;;;;;5090202;28;20006;-70
2021/12/20 01:37:20;;;;;;;;;;;6.60;97.70;;;;;;5091210;28;20428;-70
2021/12/20 01:39:46;;;;;;;;;;;6.50;97.70;;;;;;5086838;28;19912;-70
2021/12/20 01:42:15;;;;;;;;;;;6.50;97.70;;;;;;5092304;28;20333;-70
2021/12/20 01:44:41;;;;;;;;;;;6.50;97.70;;;;;;5087254;28;20034;-70
2021/12/20 01:47:08;;;;;;;;;;;6.60;97.70;;;;;;5092241;28;19920;-70
2021/12/20 01:49:41;;;;;;;;;;;6.60;97.70;;;;;;5092692;28;19927;-70
2021/12/20 01:52:14;;;;;;;;;;;6.60;97.70;;;;;;5089913;27;19999;-69
2021/12/20 01:54:39;;;;;;;;;;;6.60;97.70;;;;;;5108086;27;19912;-70
2021/12/20 01:57:05;;;;;;;;;;;6.50;97.70;;;;;;5091710;27;19972;-70
2021/12/20 01:59:30;;;;;;;;;;;6.50;97.70;;;;;;5081245;28;19928;-70
2021/12/20 02:01:56;;;;;;;;;;;6.50;97.70;;;;;;5089777;28;20268;-70
2021/12/20 02:04:22;;;;;;;;;;;6.50;97.70;;;;;;5078283;28;19962;-70
2021/12/20 02:06:49;;;;;;;;;;;6.50;97.70;;;;;;5087135;28;20015;-70
2021/12/20 02:09:17;;;;;;;;;;;6.50;97.90;;;;;;5099650;28;19935;-70
2021/12/20 02:11:43;;;;;;;;;;;6.50;97.70;;;;;;5090981;28;20410;-70
2021/12/20 02:14:09;;;;;;;;;;;6.50;97.70;;;;;;5097847;28;20356;-70
2021/12/20 02:16:35;;;;;;;;;;;6.50;97.70;;;;;;5092384;28;19912;-70
2021/12/20 02:19:02;;;;;;;;;;;6.50;97.70;;;;;;5101196;28;20407;-70
2021/12/20 02:21:28;;;;;;;;;;;6.50;97.70;;;;;;5091503;28;19947;-71
2021/12/20 02:23:53;;;;;;;;;;;6.50;97.70;;;;;;5095788;28;19967;-70
2021/12/20 02:26:22;;;;;;;;;;;6.50;97.70;;;;;;5089621;28;19912;-70
2021/12/20 02:28:50;;;;;;;;;;;6.50;97.70;;;;;;5101241;28;20253;-70
2021/12/20 02:39:14;;;;;;;;;;;6.50;97.60;;;;;;5102490;28;19930;-70
2021/12/20 02:41:41;;;;;;;;;;;6.40;97.60;;;;;;5088433;28;19959;-70
2021/12/20 02:44:11;;;;;;;;;;;6.40;97.60;;;;;;5089220;28;19923;-70
2021/12/20 02:49:04;;;;;;;;;;;6.50;97.60;;;;;;5092092;28;20360;-70
2021/12/20 02:51:29;;;;;;;;;;;6.40;97.60;;;;;;5090692;28;19920;-70
2021/12/20 02:53:56;;;;;;;;;;;6.40;97.60;;;;;;5078899;28;20280;-70
2021/12/20 02:56:21;;;;;;;;;;;6.40;97.60;;;;;;5088479;28;19961;-70
2021/12/20 02:58:47;;;;;;;;;;;6.40;97.60;;;;;;5084805;28;19913;-70
2021/12/20 03:01:12;;;;;;;;;;;6.40;97.60;;;;;;5091066;28;19928;-70
2021/12/20 03:03:38;;;;;;;;;;;6.40;97.60;;;;;;5107714;28;19994;-70
2021/12/20 03:06:26;;;;;;;;;;;6.40;97.60;;;;;;5091559;28;19912;-70
2021/12/20 03:08:53;;;;;;;;;;;6.40;97.60;;;;;;5079521;28;19920;-70
2021/12/20 03:11:19;;;;;;;;;;;6.40;97.60;;;;;;5094168;28;19916;-70
2021/12/20 03:13:49;;;;;;;;;;;6.40;97.60;;;;;;5088896;28;19908;-70
2021/12/20 03:16:15;;;;;;;;;;;6.40;97.60;;;;;;5091343;28;19938;-70
2021/12/20 03:18:40;;;;;;;;;;;6.40;97.60;;;;;;5088532;28;19909;-70
2021/12/20 03:21:06;;;;;;;;;;;6.40;97.60;;;;;;5091875;28;20353;-70
2021/12/20 03:23:31;;;;;;;;;;;6.40;97.60;;;;;;5110892;28;19951;-70
2021/12/20 03:25:57;;;;;;;;;;;6.40;97.60;;;;;;5090995;28;19954;-70
2021/12/20 03:28:22;;;;;;;;;;;6.40;97.60;;;;;;5079606;28;19909;-70
2021/12/20 03:30:47;;;;;;;;;;;6.40;97.60;;;;;;5089780;28;19912;-69
2021/12/20 03:33:13;;;;;;;;;;;6.40;97.60;;;;;;5093745;28;19915;-70
2021/12/20 03:35:38;;;;;;;;;;;6.40;97.50;;;;;;5090676;28;20003;-69
2021/12/20 03:38:04;;;;;;;;;;;6.40;97.60;;;;;;5093521;28;19912;-70
2021/12/20 03:40:30;;;;;;;;;;;6.40;97.60;;;;;;5092526;28;19927;-69
2021/12/20 03:42:56;;;;;;;;;;;6.40;97.60;;;;;;5093360;28;19977;-69
2021/12/20 03:45:21;;;;;;;;;;;6.30;97.50;;;;;;5093791;28;20379;-70
2021/12/20 03:47:47;;;;;;;;;;;6.40;97.60;;;;;;5086595;28;19912;-70
2021/12/20 03:50:14;;;;;;;;;;;6.30;97.50;;;;;;5091710;28;20010;-70
2021/12/20 03:52:39;;;;;;;;;;;6.30;97.50;;;;;;5086663;28;19908;-70
2021/12/20 03:55:06;;;;;;;;;;;6.30;97.60;;;;;;5087425;28;20377;-70
2021/12/20 03:57:33;;;;;;;;;;;6.40;97.60;;;;;;5091844;28;20415;-69
2021/12/20 03:59:59;;;;;;;;;;;6.30;97.50;;;;;;5091000;28;19951;-70
2021/12/20 04:02:25;;;;;;;;;;;6.30;97.60;;;;;;5101856;28;19920;-70
2021/12/20 04:04:51;;;;;;;;;;;6.30;97.50;;;;;;5098315;28;19973;-70
2021/12/20 04:07:17;;;;;;;;;;;6.30;97.60;;;;;;5091573;28;19951;-70
2021/12/20 04:09:42;;;;;;;;;;;6.30;97.60;;;;;;5123559;27;19912;-70
2021/12/20 04:12:08;;;;;;;;;;;6.30;97.60;;;;;;5098310;28;19920;-69
2021/12/20 04:14:34;;;;;;;;;;;6.30;97.60;;;;;;5093412;28;19911;-70
2021/12/20 04:16:59;;;;;;;;;;;6.30;97.50;;;;;;5096870;28;19911;-69
2021/12/20 04:19:25;;;;;;;;;;;6.30;97.60;;;;;;5098812;28;19913;-70
2021/12/20 04:21:50;;;;;;;;;;;6.30;97.60;;;;;;5091079;28;19962;-70
2021/12/20 04:24:16;;;;;;;;;;;6.30;97.50;;;;;;5093099;27;19987;-69
2021/12/20 04:26:41;;;;;;;;;;;6.30;97.60;;;;;;5095263;28;20291;-70
2021/12/20 04:29:07;;;;;;;;;;;6.30;97.60;;;;;;5094686;28;19912;-70
2021/12/20 04:31:35;;;;;;;;;;;6.30;97.60;;;;;;5094628;28;20370;-70
2021/12/20 04:34:00;;;;;;;;;;;6.30;97.50;;;;;;5101485;28;19912;-70
2021/12/20 04:36:26;;;;;;;;;;;6.30;97.60;;;;;;5095719;28;19966;-70
2021/12/20 04:38:52;;;;;;;;;;;6.30;97.50;;;;;;5094922;28;19915;-70
2021/12/20 04:41:17;;;;;;;;;;;6.30;97.60;;;;;;5093369;28;20464;-70
2021/12/20 04:43:43;;;;;;;;;;;6.30;97.50;;;;;;5093717;28;19912;-69
2021/12/20 04:46:08;;;;;;;;;;;6.30;97.50;;;;;;5093118;28;19912;-69
2021/12/20 04:48:34;;;;;;;;;;;6.30;97.50;;;;;;5105502;28;19911;-70
2021/12/20 04:50:59;;;;;;;;;;;6.20;97.50;;;;;;5091135;28;19951;-69
2021/12/20 04:53:25;;;;;;;;;;;6.20;97.50;;;;;;5103679;28;20350;-70
2021/12/20 04:55:50;;;;;;;;;;;6.30;97.60;;;;;;5093299;28;21265;-69
2021/12/20 04:58:16;;;;;;;;;;;6.30;97.50;;;;;;5085214;28;19909;-70
2021/12/20 05:00:43;;;;;;;;;;;6.20;97.50;;;;;;5093704;28;19974;-70
2021/12/20 05:03:09;;;;;;;;;;;6.30;97.50;;;;;;5092120;28;20303;-69
2021/12/20 05:05:36;;;;;;;;;;;6.20;97.50;;;;;;5090722;28;19918;-70
2021/12/20 05:08:03;;;;;;;;;;;6.20;97.50;;;;;;5075801;28;19909;-69
2021/12/20 05:10:33;;;;;;;;;;;6.20;97.50;;;;;;5091688;28;20402;-70
2021/12/20 05:13:00;;;;;;;;;;;6.20;97.50;;;;;;5092885;28;19953;-69
2021/12/20 05:15:26;;;;;;;;;;;6.20;97.80;;;;;;5093433;28;19961;-70
2021/12/20 05:17:52;;;;;;;;;;;6.20;97.50;;;;;;5079942;28;20341;-70
2021/12/20 05:20:17;;;;;;;;;;;6.20;97.50;;;;;;5090631;28;19974;-69
2021/12/20 05:22:43;;;;;;;;;;;6.20;97.50;;;;;;5084317;28;19913;-70
2021/12/20 05:25:09;;;;;;;;;;;6.20;97.50;;;;;;5087560;28;19920;-70
2021/12/20 05:27:34;;;;;;;;;;;6.20;97.80;;;;;;5086176;28;19909;-70
2021/12/20 05:30:00;;;;;;;;;;;6.20;97.50;;;;;;5087491;28;20019;-69
2021/12/20 05:32:26;;;;;;;;;;;6.20;97.60;;;;;;5086408;28;20261;-70
2021/12/20 05:34:51;;;;;;;;;;;6.20;97.50;;;;;;5087158;28;19920;-70
2021/12/20 05:37:17;;;;;;;;;;;6.20;97.70;;;;;;5087493;28;19916;-69
2021/12/20 05:39:43;;;;;;;;;;;6.20;97.40;;;;;;5086524;28;20305;-70
2021/12/20 05:42:08;;;;;;;;;;;6.20;97.40;;;;;;5082452;28;20381;-70
2021/12/20 05:44:34;;;;;;;;;;;6.20;97.40;;;;;;5086943;28;19924;-70
2021/12/20 05:46:59;;;;;;;;;;;6.10;97.30;;;;;;5096604;28;19923;-70
2021/12/20 05:49:25;;;;;;;;;;;6.10;97.30;;;;;;5094899;28;19942;-69
2021/12/20 05:51:51;;;;;;;;;;;6.10;97.30;;;;;;5095088;28;19916;-69
2021/12/20 05:54:17;;;;;;;;;;;6.10;97.30;;;;;;5093324;28;20308;-70
2021/12/20 05:56:42;;;;;;;;;;;6.10;97.20;;;;;;5092827;28;19911;-70
2021/12/20 05:59:07;;;;;;;;;;;6.10;97.20;;;;;;5095615;28;19912;-69
2021/12/20 06:01:33;;;;;;;;;;;6.00;97.20;;;;;;5096650;28;20315;-69
2021/12/20 06:03:58;;;;;;;;;;;6.00;97.10;;;;;;5094068;28;19923;-69
2021/12/20 06:06:27;;;;;;;;;;;6.00;97.10;;;;;;5094014;28;19923;-69
2021/12/20 06:08:52;;;;;;;;;;;6.00;97.10;;;;;;5095940;28;19931;-70
2021/12/20 06:11:18;;;;;;;;;;;6.00;97.10;;;;;;5091670;28;19912;-70
2021/12/20 06:13:43;;;;;;;;;;;5.90;97.00;;;;;;5086285;28;19911;-70
2021/12/20 06:16:09;;;;;;;;;;;5.90;97.00;;;;;;5089351;28;19912;-70
2021/12/20 06:18:34;;;;;;;;;;;5.90;96.90;;;;;;5091382;28;19934;-69
2021/12/20 06:21:00;;;;;;;;;;;5.90;97.00;;;;;;5093069;28;19969;-69
2021/12/20 06:23:25;;;;;;;;;;;5.80;96.90;;;;;;5097617;28;19942;-69
2021/12/20 06:25:51;;;;;;;;;;;5.80;96.90;;;;;;5090012;28;20253;-70
2021/12/20 06:28:16;;;;;;;;;;;5.80;96.90;;;;;;5093072;28;19913;-70
2021/12/20 06:30:42;;;;;;;;;;;5.80;96.80;;;;;;5090666;28;19908;-70
2021/12/20 06:33:07;;;;;;;;;;;5.80;96.80;;;;;;5091527;28;20308;-70
2021/12/20 06:35:33;;;;;;;;;;;5.80;96.80;;;;;;5093301;28;19908;-69
2021/12/20 06:38:00;;;;;;;;;;;5.70;96.80;;;;;;5098939;28;20482;-70
2021/12/20 06:40:31;;;;;;;;;;;5.80;96.80;;;;;;5092109;28;19918;-69
2021/12/20 06:42:57;;;;;;;;;;;5.70;96.70;;;;;;5087876;28;19912;-70
2021/12/20 06:45:22;;;;;;;;;;;5.70;96.70;;;;;;5107443;27;20381;-70
2021/12/20 06:47:48;;;;;;;;;;;5.70;96.70;;;;;;5095118;28;19948;-70
2021/12/20 06:50:13;;;;;;;;;;;5.70;96.70;;;;;;5092171;28;19912;-70
2021/12/20 06:52:39;;;;;;;;;;;5.70;96.70;;;;;;5103983;28;20317;-70
2021/12/20 06:55:04;;;;;;;;;;;5.60;96.60;;;;;;5092980;28;19920;-70
2021/12/20 06:57:30;;;;;;;;;;;5.60;96.60;;;;;;5073301;28;20422;-69
2021/12/20 06:59:56;;;;;;;;;;;5.60;96.60;;;;;;5089950;28;19912;-69
2021/12/20 07:02:22;;;;;;;;;;;5.60;96.60;;;;;;5096200;28;20030;-71
2021/12/20 07:04:48;;;;;;;;;;;5.60;96.60;;;;;;5090089;28;19919;-70
2021/12/20 07:07:13;;;;;;;;;;;5.50;96.50;;;;;;5096999;28;19908;-69
2021/12/20 07:09:39;;;;;;;;;;;5.60;96.60;;;;;;5088567;28;20344;-69
2021/12/20 07:12:04;;;;;;;;;;;5.50;96.50;;;;;;5105528;28;20258;-70
2021/12/20 07:14:30;;;;;;;;;;;5.50;96.50;;;;;;5088926;28;19930;-70
2021/12/20 07:16:56;;;;;;;;;;;5.50;96.50;;;;;;5105210;28;20268;-70
2021/12/20 07:19:21;;;;;;;;;;;5.50;96.40;;;;;;5087561;28;19912;-69
2021/12/20 07:21:47;;;;;;;;;;;5.50;96.40;;;;;;5104694;28;19918;-69
2021/12/20 07:24:13;;;;;;;;;;;5.50;96.40;;;;;;5087221;28;19955;-70
2021/12/20 07:26:40;;;;;;;;;;;5.40;96.30;;;;;;5087046;28;19912;-70
2021/12/20 07:29:06;;;;;;;;;;;5.40;96.30;;;;;;5085562;28;19925;-70
2021/12/20 07:31:31;;;;;;;;;;;5.40;96.30;;;;;;5079183;28;20007;-70
2021/12/20 07:33:57;;;;;;;;;;;5.40;96.30;;;;;;5084342;28;19965;-70
2021/12/20 07:36:22;;;;;;;;;;;5.40;96.30;;;;;;5096418;28;19982;-70
2021/12/20 07:38:48;;;;;;;;;;;5.40;96.30;;;;;;5089507;28;20300;-69
2021/12/20 07:41:17;;;;;;;;;;;5.40;96.30;;;;;;5089107;28;19955;-69
2021/12/20 07:43:42;;;;;;;;;;;5.30;96.20;;;;;;5097032;28;20567;-70
2021/12/20 07:46:08;;;;;;;;;;;5.30;96.20;;;;;;5090622;28;19921;-69
2021/12/20 07:48:33;;;;;;;;;;;5.30;96.20;;;;;;5096028;28;19947;-70
2021/12/20 07:50:59;;;;;;;;;;;5.30;96.20;;;;;;5097626;28;19927;-70
2021/12/20 07:53:25;;;;;;;;;;;5.30;96.20;;;;;;5087170;28;19920;-69
2021/12/20 07:55:51;;;;;;;;;;;5.30;96.20;;;;;;5093827;28;19919;-69
2021/12/20 07:58:16;;;;;;;;;;;5.30;96.20;;;;;;5088548;28;19916;-69
2021/12/20 08:00:42;;;;;;;;;;;5.30;96.20;;;;;;5091917;28;19926;-69
2021/12/20 08:03:07;;;;;;;;;;;5.30;96.10;;;;;;5097340;28;19916;-70
2021/12/20 08:05:33;;;;;;;;;;;5.30;96.10;;;;;;5093579;28;19912;-70
2021/12/20 08:07:58;;;;;;;;;;;5.30;96.10;;;;;;5094275;28;19920;-70
2021/12/20 08:10:25;;;;;;;;;;;5.20;96.10;;;;;;5094548;28;19940;-69
2021/12/20 08:12:51;;;;;;;;;;;5.30;96.10;;;;;;5101112;28;19919;-70
2021/12/20 08:15:17;;;;;;;;;;;5.20;96.10;;;;;;5092585;28;19937;-70
2021/12/20 08:17:42;;;;;;;;;;;5.20;96.10;;;;;;5092735;28;19916;-70
2021/12/20 08:20:09;;;;;;;;;;;5.20;96.10;;;;;;5092544;28;19916;-69
2021/12/20 08:22:34;;;;;;;;;;;5.20;96.10;;;;;;5096944;28;19920;-69
2021/12/20 08:25:00;;;;;;;;;;;5.20;96.10;;;;;;5094851;28;20608;-69
2021/12/20 08:27:26;;;;;;;;;;;5.20;96.10;;;;;;5091631;28;20392;-69
2021/12/20 08:29:52;;;;;;;;;;;5.20;96.10;;;;;;5092050;28;19916;-69
2021/12/20 08:32:17;;;;;;;;;;;5.20;96.00;;;;;;5092006;28;19920;-69
2021/12/20 08:34:43;;;;;;;;;;;5.20;96.00;;;;;;5093063;28;19919;-69
2021/12/20 08:37:08;;;;;;;;;;;5.20;96.00;;;;;;5086120;28;19923;-69
2021/12/20 08:39:34;;;;;;;;;;;5.20;96.00;;;;;;5093717;28;19919;-69
2021/12/20 08:42:00;;;;;;;;;;;5.20;96.00;;;;;;5090660;28;19927;-69
2021/12/20 08:44:26;;;;;;;;;;;5.20;96.00;;;;;;5093573;28;20289;-69
2021/12/20 08:46:52;;;;;;;;;;;5.20;96.00;;;;;;5089194;28;19927;-69
2021/12/20 08:49:18;;;;;;;;;;;5.10;95.90;;;;;;5092119;28;20049;-69
2021/12/20 08:51:45;;;;;;;;;;;5.20;96.00;;;;;;5108102;28;20394;-69
2021/12/20 08:54:11;;;;;;;;;;;5.20;96.00;;;;;;5092275;28;19909;-70
2021/12/20 08:56:36;;;;;;;;;;;5.20;95.90;;;;;;5073887;28;19909;-69
2021/12/20 08:59:02;;;;;;;;;;;5.20;95.90;;;;;;5094615;28;20349;-69
2021/12/20 09:01:27;;;;;;;;;;;5.10;95.90;;;;;;5090309;28;20374;-69
2021/12/20 09:03:53;;;;;;;;;;;5.10;95.90;;;;;;5091834;28;19920;-69
2021/12/20 09:06:22;;;;;;;;;;;5.10;95.90;;;;;;5090832;28;19920;-69
2021/12/20 09:08:48;;;;;;;;;;;5.10;95.90;;;;;;5091650;28;19927;-70
2021/12/20 09:11:13;;;;;;;;;;;5.10;95.90;;;;;;5093224;28;20346;-69
2021/12/20 09:13:41;;;;;;;;;;;5.20;95.90;;;;;;5088501;28;19934;-69
2021/12/20 09:16:06;;;;;;;;;;;5.20;95.90;;;;;;5086958;28;19926;-70
2021/12/20 09:18:32;;;;;;;;;;;5.20;95.90;;;;;;5088883;28;20002;-69
2021/12/20 09:20:58;;;;;;;;;;;5.20;95.80;;;;;;5083125;28;19916;-69
2021/12/20 09:23:26;;;;;;;;;;;5.20;95.90;;;;;;5088289;28;19916;-69
2021/12/20 09:25:52;;;;;;;;;;;5.10;95.80;;;;;;5100615;28;19951;-69
2021/12/20 09:28:18;;;;;;;;;;;5.10;95.90;;;;;;5085236;28;19951;-70
2021/12/20 09:30:44;;;;;;;;;;;5.10;95.90;;;;;;5095813;28;19965;-70
2021/12/20 09:33:10;;;;;;;;;;;5.10;95.90;;;;;;5092402;28;19924;-69
2021/12/20 09:35:36;;;;;;;;;;;5.10;95.90;;;;;;5094504;28;20272;-69
2021/12/20 09:38:05;;;;;;;;;;;5.10;95.90;;;;;;5086664;28;19912;-69
2021/12/20 09:40:37;;;;;;;;;;;5.10;96.00;;;;;;5096663;28;19920;-69
2021/12/20 09:43:10;;;;;;;;;;;5.10;96.00;;;;;;5085781;28;19983;-69
2021/12/20 09:45:36;;;;;;;;;;;5.10;95.90;;;;;;5101315;28;19916;-70
2021/12/20 09:48:02;;;;;;;;;;;5.10;95.90;;;;;;5089007;28;19920;-70
2021/12/20 09:50:28;;;;;;;;;;;5.10;95.90;;;;;;5097605;28;19957;-69
2021/12/20 09:52:54;;;;;;;;;;;5.10;95.90;;;;;;5092093;28;19925;-69
2021/12/20 09:55:19;;;;;;;;;;;5.10;95.90;;;;;;5096890;28;19937;-69
2021/12/20 09:57:47;;;;;;;;;;;5.10;95.90;;;;;;5088976;28;20377;-69
2021/12/20 10:00:14;;;;;;;;;;;5.10;96.00;;;;;;5098458;28;19912;-69
2021/12/20 10:02:42;;;;;;;;;;;5.10;96.00;;;;;;5096695;28;20381;-70
2021/12/20 10:05:07;;;;;;;;;;;5.10;96.00;;;;;;5096753;28;20312;-69
2021/12/20 10:07:33;;;;;;;;;;;5.20;96.00;;;;;;5094829;28;19958;-69
2021/12/20 10:10:00;;;;;;;;;;;5.10;96.00;;;;;;5097236;28;19907;-69
2021/12/20 10:12:27;;;;;;;;;;;5.10;96.00;;;;;;5094871;28;19920;-69
2021/12/20 10:14:52;;;;;;;;;;;5.20;96.00;;;;;;5091891;28;20433;-70
2021/12/20 10:17:18;;;;;;;;;;;5.10;96.00;;;;;;5093922;28;20002;-69
2021/12/20 10:19:43;;;;;;;;;;;5.20;96.00;;;;;;5091224;28;19912;-69
2021/12/20 10:22:28;;;;;;;;;;;5.10;96.00;;;;;;5089926;28;20261;-69
2021/12/20 10:24:55;;;;;;;;;;;5.10;96.00;;;;;;5088808;28;19958;-69
2021/12/20 10:27:27;;;;;;;;;;;5.20;96.10;;;;;;5083513;28;20326;-70
2021/12/20 10:29:53;;;;;;;;;;;5.10;96.00;;;;;;5080580;28;19909;-69
2021/12/20 10:32:36;;;;;;;;;;;5.10;96.00;;;;;;5081520;28;19916;-69
2021/12/20 10:35:02;;;;;;;;;;;5.10;96.00;;;;;;5079320;28;19931;-69
2021/12/20 10:37:40;;;;;;;;;;;5.10;96.00;;;;;;5082918;28;19932;-69
2021/12/20 10:40:06;;;;;;;;;;;5.20;96.10;;;;;;5091267;28;19993;-69
2021/12/20 10:42:40;;;;;;;;;;;5.20;96.10;;;;;;5089250;28;19955;-69
2021/12/20 10:45:06;;;;;;;;;;;5.20;96.10;;;;;;5079928;28;19967;-69
2021/12/20 10:47:31;;;;;;;;;;;5.20;96.00;;;;;;5084117;28;19912;-70
2021/12/20 10:49:57;;;;;;;;;;;5.20;96.10;;;;;;5091196;28;19923;-69
2021/12/20 10:52:26;;;;;;;;;;;5.20;96.10;;;;;;5084612;28;20361;-69
2021/12/20 10:54:52;;;;;;;;;;;5.20;96.10;;;;;;5090864;28;19977;-69
2021/12/20 10:57:24;;;;;;;;;;;5.30;96.10;;;;;;5089028;28;19955;-69
2021/12/20 10:59:50;;;;;;;;;;;5.30;96.10;;;;;;5092174;28;20371;-69
2021/12/20 11:03:10;;;;;;;;;;;5.30;96.10;;;;;;5085261;28;19952;-70
2021/12/20 11:05:20;;;;;;;;;;;5.30;96.00;;;;;;5077783;28;19908;-69
2021/12/20 11:10:31;;;;;;;;;;;5.30;96.10;;;;;;5085403;28;19959;-69
2021/12/20 11:12:57;;;;;;;;;;;5.30;96.10;;;;;;5087485;28;19919;-69
2021/12/20 11:15:27;;;;;;;;;;;5.30;96.10;;;;;;5092395;28;19953;-69
2021/12/20 11:17:53;;;;;;;;;;;5.30;96.10;;;;;;5085080;28;19924;-69
2021/12/20 11:20:19;;;;;;;;;;;5.30;96.20;;;;;;5080363;28;19937;-69
2021/12/20 11:22:45;;;;;;;;;;;5.30;96.20;;;;;;5086498;28;19939;-70
2021/12/20 11:25:15;;;;;;;;;;;5.30;96.10;;;;;;5082769;28;20365;-69
2021/12/20 11:27:46;;;;;;;;;;;5.30;96.10;;;;;;5089229;28;19931;-70
2021/12/20 11:30:12;;;;;;;;;;;5.30;96.20;;;;;;5094953;28;19965;-69
2021/12/20 11:32:39;;;;;;;;;;;5.30;96.20;;;;;;5088902;28;19986;-69
2021/12/20 11:35:05;;;;;;;;;;;5.30;96.20;;;;;;5091191;28;20029;-69
2021/12/20 11:37:30;;;;;;;;;;;5.30;96.20;;;;;;5093005;28;19919;-69
2021/12/20 11:39:57;;;;;;;;;;;5.30;96.20;;;;;;5103974;28;19923;-70
2021/12/20 11:42:24;;;;;;;;;;;5.30;96.20;;;;;;5094027;28;19990;-69
2021/12/20 11:44:53;;;;;;;;;;;5.30;96.20;;;;;;5094559;28;21305;-70
2021/12/20 11:47:23;;;;;;;;;;;5.40;96.20;;;;;;5091371;28;19916;-69
2021/12/20 11:50:06;;;;;;;;;;;5.40;96.10;;;;;;5100842;28;19920;-70
2021/12/20 11:52:35;;;;;;;;;;;5.30;96.20;;;;;;5093830;28;19912;-69
2021/12/20 11:55:13;;;;;;;;;;;5.40;96.20;;;;;;5107575;28;19958;-69
2021/12/20 11:57:40;;;;;;;;;;;5.40;96.20;;;;;;5095726;28;19916;-69
2021/12/20 12:00:19;;;;;;;;;;;5.40;96.20;;;;;;5103636;28;19912;-69
2021/12/20 12:02:45;;;;;;;;;;;5.30;96.20;;;;;;5096724;28;19995;-69
2021/12/20 12:05:17;;;;;;;;;;;5.30;96.20;;;;;;5105801;28;19912;-69
2021/12/20 12:07:43;;;;;;;;;;;5.40;96.20;;;;;;5093165;28;19999;-69
2021/12/20 12:10:11;;;;;;;;;;;5.40;96.20;;;;;;5091605;28;19959;-69
2021/12/20 12:12:42;;;;;;;;;;;5.40;96.20;;;;;;5092961;28;20300;-69
2021/12/20 12:15:14;;;;;;;;;;;5.40;96.20;;;;;;5107460;27;19908;-69
2021/12/20 12:17:48;;;;;;;;;;;5.40;96.20;;;;;;5107778;27;21478;-69
2021/12/20 12:20:14;;;;;;;;;;;5.40;96.20;;;;;;5088304;28;19912;-69
2021/12/20 12:22:43;;;;;;;;;;;5.40;96.20;;;;;;5094553;28;19920;-69
2021/12/20 12:25:10;;;;;;;;;;;5.40;96.20;;;;;;5093866;28;19923;-69
2021/12/20 12:27:37;;;;;;;;;;;5.40;96.20;;;;;;5093060;28;19920;-69
2021/12/20 12:30:12;;;;;;;;;;;5.40;96.20;;;;;;5088707;28;19954;-69
2021/12/20 12:32:38;;;;;;;;;;;5.40;96.20;;;;;;5093626;28;19942;-69
2021/12/20 12:35:04;;;;;;;;;;;5.40;96.30;;;;;;5106942;28;19945;-69
2021/12/20 12:37:35;;;;;;;;;;;5.40;96.30;;;;;;5088732;28;20326;-69
2021/12/20 12:40:19;;;;;;;;;;;5.40;96.20;;;;;;5094529;28;20399;-69
2021/12/20 12:42:47;;;;;;;;;;;5.40;96.20;;;;;;5090008;28;19916;-69
2021/12/20 12:45:16;;;;;;;;;;;5.30;96.20;;;;;;5073122;28;19970;-69
2021/12/20 12:47:41;;;;;;;;;;;5.30;96.30;;;;;;5091327;28;19965;-70
2021/12/20 12:50:23;;;;;;;;;;;5.40;96.30;;;;;;5099013;27;19912;-69
2021/12/20 12:52:50;;;;;;;;;;;5.40;96.40;;;;;;5091510;28;19915;-69
2021/12/20 12:55:25;;;;;;;;;;;5.40;96.30;;;;;;5075411;28;19959;-70
2021/12/20 12:57:50;;;;;;;;;;;5.40;96.30;;;;;;5091739;28;19920;-69
2021/12/20 13:00:21;;;;;;;;;;;5.40;96.30;;;;;;5076224;28;20403;-69
2021/12/20 13:02:49;;;;;;;;;;;5.40;96.30;;;;;;5090846;28;19920;-70
2021/12/20 13:05:15;;;;;;;;;;;5.40;96.30;;;;;;5079520;28;19919;-69
2021/12/20 13:07:41;;;;;;;;;;;5.40;96.10;;;;;;5093780;28;19908;-69
2021/12/20 13:10:10;;;;;;;;;;;5.40;96.30;;;;;;5074842;28;19912;-69
2021/12/20 13:15:23;;;;;;;;;;;5.40;96.10;;;;;;5096287;28;20007;-70
2021/12/20 13:17:50;;;;;;;;;;;5.40;96.20;;;;;;5089088;28;19974;-70
2021/12/20 13:20:37;;;;;;;;;;;5.40;96.10;;;;;;5096471;28;19912;-70
2021/12/20 13:23:11;;;;;;;;;;;5.40;96.10;;;;;;5093193;28;19923;-70
2021/12/20 13:25:36;;;;;;;;;;;5.40;96.00;;;;;;5088653;28;20376;-69
2021/12/20 13:28:02;;;;;;;;;;;5.40;96.10;;;;;;5088559;28;20007;-70
2021/12/20 13:30:31;;;;;;;;;;;5.40;96.10;;;;;;5100793;28;19913;-69
2021/12/20 13:32:57;;;;;;;;;;;5.40;96.10;;;;;;5087456;28;19935;-70
2021/12/20 13:35:23;;;;;;;;;;;5.40;96.10;;;;;;5091728;28;19947;-70
2021/12/20 13:37:50;;;;;;;;;;;5.40;96.10;;;;;;5087630;28;20012;-69
2021/12/20 13:40:16;;;;;;;;;;;5.30;96.10;;;;;;5080935;28;20028;-70
2021/12/20 13:42:49;;;;;;;;;;;5.40;96.10;;;;;;5091516;28;19978;-69
2021/12/20 13:45:14;;;;;;;;;;;5.40;96.10;;;;;;5091996;28;20368;-70
2021/12/20 13:47:41;;;;;;;;;;;5.40;96.00;;;;;;5093629;28;20002;-69
2021/12/20 13:50:17;;;;;;;;;;;5.40;96.10;;;;;;5101316;28;20380;-69
2021/12/20 13:52:46;;;;;;;;;;;5.40;96.00;;;;;;5090688;28;20556;-69
2021/12/20 13:55:11;;;;;;;;;;;5.40;96.00;;;;;;5090300;28;19999;-69
2021/12/20 13:57:38;;;;;;;;;;;5.40;96.10;;;;;;5089260;28;21343;-69
2021/12/20 14:00:06;;;;;;;;;;;5.40;96.00;;;;;;5092361;28;19912;-69
2021/12/20 14:02:35;;;;;;;;;;;5.40;96.00;;;;;;5092147;28;19941;-69
2021/12/20 14:05:10;;;;;;;;;;;5.40;96.00;;;;;;5087792;28;19917;-69
2021/12/20 14:07:38;;;;;;;;;;;5.40;96.00;;;;;;5090131;28;19953;-69
2021/12/20 14:10:04;;;;;;;;;;;5.40;95.90;;;;;;5085893;28;19960;-69
2021/12/20 14:12:52;;;;;;;;;;;5.40;95.90;;;;;;5092808;28;19916;-70
2021/12/20 14:15:23;;;;;;;;;;;5.40;95.90;;;;;;5076637;28;19982;-70
2021/12/20 14:18:03;;;;;;;;;;;5.40;95.90;;;;;;5096908;28;19908;-69
2021/12/20 14:20:37;;;;;;;;;;;5.40;95.90;;;;;;5087894;28;19917;-69
2021/12/20 14:23:04;;;;;;;;;;;5.40;95.90;;;;;;5094322;28;19912;-69
2021/12/20 14:25:29;;;;;;;;;;;5.40;95.90;;;;;;5090343;28;19916;-70
2021/12/20 14:27:59;;;;;;;;;;;5.30;95.90;;;;;;5095505;28;19952;-70
2021/12/20 14:30:24;;;;;;;;;;;5.30;95.90;;;;;;5088389;28;20437;-70
2021/12/20 14:32:50;;;;;;;;;;;5.40;95.90;;;;;;5095351;28;19998;-70
2021/12/20 14:35:22;;;;;;;;;;;5.30;95.80;;;;;;5100003;28;19970;-70
2021/12/20 14:37:47;;;;;;;;;;;5.30;95.90;;;;;;5091272;28;19999;-70
2021/12/20 14:40:32;;;;;;;;;;;5.30;95.90;;;;;;5098167;28;21368;-70
2021/12/20 14:43:06;;;;;;;;;;;5.30;95.80;;;;;;5090251;28;19916;-70
2021/12/20 14:45:31;;;;;;;;;;;5.30;95.80;;;;;;5091297;28;19998;-70
2021/12/20 14:48:16;;;;;;;;;;;5.30;95.80;;;;;;5093657;28;19916;-70
2021/12/20 14:50:46;;;;;;;;;;;5.30;95.80;;;;;;5089028;28;19916;-70